Terminal Aerodrome Forecast
Issued by NWS Lake Charles, LA

Home | Current Version | Previous Version | Text Only | Print | Product List | Glossary On
Versions: 1 2 3 4 5 6 7 8 9 10 11 12 13 14 15 16 17 18 19 20 21 22
000
FTUS44 KLCH 030520
TAFLFT
TAF
KLFT 030520Z 0306/0406 01008KT P6SM FEW012 SCT035
      TEMPO 0307/0309 BKN012 OVC035
     FM031400 36012KT P6SM SCT040=

USA.gov is the U.S. government's official web portal to all federal, state and local government web resources and services.